Dexter, MI (48130)

2:30 PM EST on January 29, 2015 (GMT -0500)
Huron Farms | Change Station
CLOSE
Current Station
Personal Weather Station
Location: Dexter, MI
Elevation: 896 ft
Nearby Weather Stations

Elev 896 ft 42.33 °N, 83.86 °W | Updated 10 seconds ago

Snow
Snow
32.5 °F
Feels Like 27 °F
N
5.2
Wind Variable Wind from NNW
Gusts 9.2 mph

Today
High -- | Low -- °F
--% Chance of Precip.
Yesterday
High -- | Low -- °F
Precip. -- in
7:52 AM 5:45 PM
Waxing Gibbous, 76% visible
Pressure 29.72 in
Visibility 8.0 miles
Clouds Scattered Clouds 2900 ft
Overcast 3600 ft
Windchill 27 °F
Dew Point 28 °F
Humidity 82%
Rainfall 0.00 in
Snow Depth Not available.
UV 1 out of 12
Pollen .10 out of 12
Air Quality Not available.
Flu Activity Not available.
SPECI KARB 291908Z 32009KT 8SM -SN SCT029 OVC036 01/M02 A2972 RMK AO2 SNB07 P0000 T00111017

More Conditions Fewer Conditions

Pressure 29.72 in
Visibility 8.0 miles
Clouds Scattered Clouds 2900 ft
Overcast 3600 ft
Windchill 27 °F
Dew Point 28 °F
Humidity 82%
Rainfall 0.00 in
Snow Depth Not available.
UV 1 out of 12
Pollen .10 out of 12
Air Quality Not available.
Flu Activity Not available.
SPECI KARB 291908Z 32009KT 8SM -SN SCT029 OVC036 01/M02 A2972 RMK AO2 SNB07 P0000 T00111017

More Conditions Fewer Conditions

10-Day Weather Forecast

Almanac

Astronomy

Jan. 29, 2015 Rise Set
Actual Time
Civil Twilight
Nautical Twilight
Astronomical Twilight
Moon
Length of Visible Light
Length of Day
Tomorrow will be .
, % of the Moon is Illuminated

Today's Extremes

State Highs State Lows

Community

WunderPhotos

Upload Photos

1,791,567 photos uploaded!

WunderBlogs® & News

Nearby

Air Quality

  Air Quality AQ Index Pollutant
Not available.

Snow Depth

Station Depth Elevation

Earthquake Activity

City Distance Mag. Time & Date
Minimum magnitude displayed is 2.5.

Coastal Water Temperatures

Place Temperature

Nearby Weather Stations